Time;durP1;ratioP1;P1;durP2;ratioP2;P2;SDS_P1;SDS_P2;PMS_P1;PMS_P2;Temp;Humidity;BMP_temperature;BMP_pressure;BME280_temperature;BME280_humidity;BME280_pressure;Samples;Min_cycle;Max_cycle;Signal;HPM_P1;HPM_P2
2021/08/21 00:02:19;;;;;;;6.17;5.10;;;;;;;17.65;74.94;99615.41;4847811;29;20244;-87
2021/08/21 00:04:47;;;;;;;5.63;5.00;;;;;;;17.70;75.14;99631.69;4832778;29;20256;-87
2021/08/21 00:07:14;;;;;;;6.17;5.57;;;;;;;17.62;75.07;99622.19;4848544;29;20244;-88
2021/08/21 00:09:41;;;;;;;5.57;5.17;;;;;;;17.53;75.38;99608.31;4863501;29;20312;-86
2021/08/21 00:12:08;;;;;;;5.53;5.03;;;;;;;17.56;75.58;99626.75;4862898;29;20293;-86
2021/08/21 00:14:35;;;;;;;5.37;4.87;;;;;;;17.54;75.75;99626.19;4847835;29;20252;-86
2021/08/21 00:17:02;;;;;;;5.80;5.30;;;;;;;17.53;75.93;99626.47;4847847;29;20334;-87
2021/08/21 00:19:30;;;;;;;5.60;5.10;;;;;;;17.53;75.61;99630.00;4848024;29;20271;-87
2021/08/21 00:21:56;;;;;;;5.13;4.73;;;;;;;17.45;75.53;99622.34;4863164;29;20291;-85
2021/08/21 00:24:23;;;;;;;5.57;5.07;;;;;;;17.46;75.91;99623.16;4847500;29;20236;-87
2021/08/21 00:26:50;;;;;;;5.77;5.17;;;;;;;17.38;75.90;99621.78;4877895;29;20256;-86
2021/08/21 00:29:17;;;;;;;6.07;5.27;;;;;;;17.36;76.04;99617.69;4862919;29;20252;-87
2021/08/21 00:31:44;;;;;;;5.63;5.13;;;;;;;17.33;76.04;99626.38;4862977;29;20653;-87
2021/08/21 00:34:11;;;;;;;6.57;5.33;;;;;;;17.30;75.99;99624.19;4862651;29;20232;-86
2021/08/21 00:36:38;;;;;;;5.50;5.00;;;;;;;17.24;76.31;99617.94;4847653;29;20232;-86
2021/08/21 00:39:05;;;;;;;6.40;5.30;;;;;;;17.29;76.08;99626.09;4847745;29;20292;-87
2021/08/21 00:41:35;;;;;;;5.47;4.97;;;;;;;17.26;76.31;99626.63;4862892;29;20637;-87
2021/08/21 00:44:05;;;;;;;5.43;4.93;;;;;;;17.25;76.06;99624.16;4877561;29;20241;-86
2021/08/21 00:46:34;;;;;;;5.60;5.03;;;;;;;17.25;75.69;99626.88;4864023;29;20232;-87
2021/08/21 00:49:01;;;;;;;5.50;5.00;;;;;;;17.24;75.47;99630.66;4862800;29;20292;-89
2021/08/21 00:51:29;;;;;;;5.70;5.17;;;;;;;17.18;75.20;99629.81;4847390;29;20232;-88
2021/08/21 00:53:55;;;;;;;5.70;5.20;;;;;;;17.16;75.80;99630.09;4862988;29;20240;-87
2021/08/21 00:56:23;;;;;;;5.73;5.23;;;;;;;17.18;75.81;99629.81;4877796;29;20291;-86
2021/08/21 00:58:50;;;;;;;5.83;5.33;;;;;;;17.13;76.02;99625.19;4862583;29;20244;-88
2021/08/21 01:01:20;;;;;;;6.10;5.53;;;;;;;17.06;76.20;99630.03;4832856;29;20248;-88
2021/08/21 01:03:48;;;;;;;5.90;5.40;;;;;;;16.97;76.66;99637.00;4862732;29;20238;-89
2021/08/21 01:06:15;;;;;;;6.63;5.57;;;;;;;16.92;76.90;99641.56;4847094;29;20249;-93
2021/08/21 01:08:43;;;;;;;6.17;5.60;;;;;;;16.86;76.72;99631.78;4833145;29;20576;-88
2021/08/21 01:11:10;;;;;;;5.80;5.30;;;;;;;16.90;76.82;99636.41;4866309;29;20239;-89
2021/08/21 01:13:38;;;;;;;6.10;5.60;;;;;;;16.88;77.09;99637.75;4851210;29;20261;-93
2021/08/21 01:16:05;;;;;;;6.20;5.70;;;;;;;16.75;77.31;99630.88;4865609;29;20236;-91
2021/08/21 01:18:38;;;;;;;6.37;5.57;;;;;;;16.73;77.46;99627.63;4865173;29;20316;-89
2021/08/21 01:21:06;;;;;;;6.50;5.60;;;;;;;16.69;77.50;99634.66;4850766;29;20232;-96
2021/08/21 01:23:33;;;;;;;7.40;5.70;;;;;;;16.68;77.42;99644.66;4849788;29;20679;-96
2021/08/21 01:26:04;;;;;;;5.90;5.40;;;;;;;16.58;77.59;99625.63;4834109;29;20239;-87
2021/08/21 01:28:47;;;;;;;6.03;5.40;;;;;;;16.54;77.37;99629.06;4866892;29;20238;-83
2021/08/21 01:31:26;;;;;;;5.53;5.03;;;;;;;16.54;77.72;99629.91;4880715;29;20228;-88
2021/08/21 01:33:54;;;;;;;6.27;5.73;;;;;;;16.43;77.92;99614.66;4865591;29;20247;-86
2021/08/21 01:36:23;;;;;;;6.03;5.53;;;;;;;16.46;77.94;99622.25;4864853;29;20242;-89
2021/08/21 01:39:28;;;;;;;6.33;5.73;;;;;;;16.37;78.20;99623.81;4880651;29;20538;-85
2021/08/21 01:41:59;;;;;;;6.80;6.13;;;;;;;16.38;78.21;99628.13;4866740;29;20246;-85
2021/08/21 01:44:26;;;;;;;6.50;5.90;;;;;;;16.47;78.17;99634.69;4861818;29;20637;-88
2021/08/21 01:46:53;;;;;;;6.50;5.87;;;;;;;16.37;78.08;99631.91;4846981;29;20691;-89
2021/08/21 01:49:23;;;;;;;6.00;5.23;;;;;;;16.43;77.86;99624.66;4862274;29;20232;-89
2021/08/21 01:52:02;;;;;;;6.27;5.67;;;;;;;16.43;77.82;99628.16;4862268;29;20228;-88
2021/08/21 01:54:29;;;;;;;6.17;5.60;;;;;;;16.46;77.63;99624.97;4847060;29;20232;-89
2021/08/21 01:57:01;;;;;;;6.23;5.63;;;;;;;16.46;77.52;99621.44;4862416;29;20581;-88
2021/08/21 01:59:44;;;;;;;7.33;5.80;;;;;;;16.49;77.73;99631.75;4848688;29;20296;-89
2021/08/21 02:02:17;;;;;;;6.20;5.60;;;;;;;16.43;77.93;99632.75;4847070;29;20228;-88
2021/08/21 02:04:51;;;;;;;7.07;5.93;;;;;;;16.35;77.79;99619.72;4847511;29;20240;-89
2021/08/21 02:07:18;;;;;;;5.83;5.27;;;;;;;16.40;77.79;99626.00;4846695;29;20232;-88
2021/08/21 02:09:45;;;;;;;6.70;5.87;;;;;;;16.35;77.88;99620.53;4861536;29;20320;-88
2021/08/21 02:12:16;;;;;;;6.67;6.07;;;;;;;16.30;78.12;99623.19;4861183;29;20283;-88
2021/08/21 02:14:49;;;;;;;5.63;5.13;;;;;;;16.30;78.44;99631.31;4848798;29;20247;-88
2021/08/21 02:17:16;;;;;;;6.60;6.00;;;;;;;16.26;78.18;99632.88;4861925;29;20235;-89
2021/08/21 02:19:57;;;;;;;6.53;5.50;;;;;;;16.14;78.31;99616.81;4849965;29;20243;-88
2021/08/21 02:22:24;;;;;;;7.37;5.87;;;;;;;16.21;78.55;99630.97;4861175;29;20308;-89
2021/08/21 02:24:52;;;;;;;6.10;5.60;;;;;;;16.13;78.69;99615.22;4846366;29;20271;-89
2021/08/21 02:27:22;;;;;;;6.67;5.97;;;;;;;16.14;78.56;99618.72;4846379;29;20543;-89
2021/08/21 02:29:49;;;;;;;6.87;6.17;;;;;;;16.03;78.67;99615.09;4846859;29;20288;-88
2021/08/21 02:32:16;;;;;;;6.63;6.03;;;;;;;16.07;78.64;99621.63;4860870;29;20316;-88
2021/08/21 02:34:43;;;;;;;6.57;5.70;;;;;;;16.12;78.82;99626.25;4861715;29;20296;-88
2021/08/21 02:37:12;;;;;;;6.10;5.57;;;;;;;16.06;78.68;99611.88;4861597;29;20281;-89
2021/08/21 02:39:40;;;;;;;5.90;5.40;;;;;;;16.06;78.55;99627.28;4846220;29;20239;-89
2021/08/21 02:42:07;;;;;;;6.27;5.63;;;;;;;16.10;78.46;99629.22;4845789;29;20243;-89
2021/08/21 02:44:34;;;;;;;6.17;5.57;;;;;;;16.03;78.64;99617.00;4846542;29;20319;-89
2021/08/21 02:47:01;;;;;;;5.83;5.33;;;;;;;16.01;78.54;99619.94;4846133;29;20562;-89
2021/08/21 02:49:27;;;;;;;6.47;5.73;;;;;;;15.99;78.65;99615.88;4847753;29;20561;-89
2021/08/21 02:51:54;;;;;;;6.20;5.60;;;;;;;15.96;78.63;99614.47;4864989;29;20256;-89
2021/08/21 02:54:21;;;;;;;7.60;5.77;;;;;;;15.95;78.68;99629.09;4864459;29;20324;-89
2021/08/21 02:56:49;;;;;;;5.73;5.23;;;;;;;15.86;79.03;99614.41;4849703;29;20672;-89
2021/08/21 02:59:18;;;;;;;6.37;5.77;;;;;;;15.93;78.96;99633.09;4849858;29;20242;-89
2021/08/21 03:01:45;;;;;;;7.00;5.90;;;;;;;15.91;79.04;99632.56;4864903;29;20319;-89
2021/08/21 03:04:13;;;;;;;6.17;5.67;;;;;;;15.84;79.12;99635.44;4849259;29;20237;-90
2021/08/21 03:06:43;;;;;;;6.20;5.60;;;;;;;15.77;79.37;99624.81;4850293;29;20252;-90
2021/08/21 03:09:19;;;;;;;7.23;5.97;;;;;;;15.75;79.25;99624.28;4850306;29;20236;-90
2021/08/21 03:11:46;;;;;;;6.30;5.70;;;;;;;15.71;79.71;99625.84;4864347;29;20668;-90
2021/08/21 03:14:26;;;;;;;6.37;5.87;;;;;;;15.68;79.75;99620.13;4863953;29;20242;-90
2021/08/21 03:16:53;;;;;;;7.17;5.33;;;;;;;15.69;79.69;99627.16;4849258;29;20250;-88
2021/08/21 03:19:20;;;;;;;6.03;5.40;;;;;;;15.67;79.53;99623.91;4849291;29;20543;-90
2021/08/21 03:21:47;;;;;;;5.73;5.23;;;;;;;15.70;79.69;99635.00;4849169;29;20508;-89
2021/08/21 03:24:16;;;;;;;6.17;5.57;;;;;;;15.63;79.59;99626.28;4849257;29;20258;-93
2021/08/21 03:26:45;;;;;;;6.37;5.77;;;;;;;15.65;79.53;99636.84;4834379;29;20236;-90
2021/08/21 03:29:12;;;;;;;6.23;5.63;;;;;;;15.57;79.74;99637.28;4864244;29;20319;-88
2021/08/21 03:31:41;;;;;;;5.93;5.43;;;;;;;15.54;79.75;99644.00;4834041;29;20239;-88
2021/08/21 03:34:08;;;;;;;6.23;5.73;;;;;;;15.49;79.81;99648.50;4833317;29;20235;-88
2021/08/21 03:36:35;;;;;;;7.30;5.90;;;;;;;15.38;79.70;99642.97;4864062;29;20319;-88
2021/08/21 03:39:02;;;;;;;6.70;5.70;;;;;;;15.39;80.46;99651.88;4848612;29;20240;-88
2021/08/21 03:41:29;;;;;;;6.80;6.20;;;;;;;15.28;80.21;99648.22;4863851;29;20288;-88
2021/08/21 03:44:04;;;;;;;6.57;5.97;;;;;;;15.28;80.20;99642.84;4835406;29;20335;-89
2021/08/21 03:46:34;;;;;;;7.27;6.03;;;;;;;15.24;80.11;99665.16;4863712;29;20291;-88
2021/08/21 03:49:02;;;;;;;6.73;6.03;;;;;;;15.14;80.59;99659.63;4848828;29;20323;-89
2021/08/21 03:51:30;;;;;;;7.03;5.97;;;;;;;15.12;80.77;99667.13;4849332;29;20238;-89
2021/08/21 03:53:57;;;;;;;6.70;6.10;;;;;;;15.06;80.72;99665.47;4863602;29;20303;-89
2021/08/21 03:56:24;;;;;;;5.90;5.40;;;;;;;15.03;80.60;99665.94;4860238;29;20260;-88
2021/08/21 03:58:55;;;;;;;6.97;6.37;;;;;;;15.01;80.82;99676.16;4882768;29;20252;-89
2021/08/21 04:01:22;;;;;;;7.20;6.40;;;;;;;15.06;81.07;99677.06;4881309;29;20278;-88
2021/08/21 04:03:56;;;;;;;7.07;5.63;;;;;;;15.05;80.93;99677.31;4867696;29;20238;-89
2021/08/21 04:06:25;;;;;;;7.57;6.57;;;;;;;15.07;80.76;99680.59;4866537;29;20242;-89
2021/08/21 04:08:52;;;;;;;6.93;6.23;;;;;;;15.09;80.70;99676.56;4882401;29;20230;-89
2021/08/21 04:11:27;;;;;;;6.73;5.90;;;;;;;15.07;80.39;99678.69;4853684;29;20324;-87
2021/08/21 04:14:11;;;;;;;6.77;6.07;;;;;;;15.17;80.57;99688.81;4868315;29;20283;-89
2021/08/21 04:16:38;;;;;;;6.57;6.07;;;;;;;15.16;80.38;99682.63;4866362;29;20228;-89
2021/08/21 04:19:05;;;;;;;7.13;6.40;;;;;;;15.21;80.49;99687.28;4881551;29;20257;-88
2021/08/21 04:21:39;;;;;;;6.57;5.87;;;;;;;15.27;80.36;99689.78;4866905;29;20282;-88
2021/08/21 04:24:25;;;;;;;6.10;5.47;;;;;;;15.33;80.28;99686.09;4884337;29;20245;-86
2021/08/21 04:26:57;;;;;;;7.30;6.60;;;;;;;15.35;79.73;99685.84;4867084;29;20567;-89
2021/08/21 04:29:25;;;;;;;7.20;6.50;;;;;;;15.39;79.66;99698.59;4866386;29;20313;-88
2021/08/21 04:31:52;;;;;;;7.67;6.87;;;;;;;15.48;79.34;99696.28;4881456;29;20535;-89
2021/08/21 04:34:19;;;;;;;7.33;6.63;;;;;;;15.54;79.58;99689.09;4880976;29;20238;-88
2021/08/21 04:36:47;;;;;;;7.43;6.73;;;;;;;15.65;79.19;99696.25;4881702;29;20662;-87
2021/08/21 04:39:17;;;;;;;8.23;7.43;;;;;;;15.81;79.18;99706.19;4852173;29;20246;-88
2021/08/21 04:41:46;;;;;;;8.13;6.57;;;;;;;15.91;79.09;99711.69;4882309;29;20234;-89
2021/08/21 04:44:13;;;;;;;7.80;7.20;;;;;;;16.07;78.63;99693.78;4881303;29;20635;-84
2021/08/21 04:46:40;;;;;;;7.97;7.17;;;;;;;16.25;78.21;99699.66;4866382;29;20225;-87
2021/08/21 04:49:07;;;;;;;7.50;6.60;;;;;;;16.46;77.67;99705.28;4866266;29;20241;-87
2021/08/21 04:51:34;;;;;;;24.73;19.27;;;;;;;16.62;77.09;99707.06;4866038;29;20574;-90
2021/08/21 04:54:05;;;;;;;13.80;12.17;;;;;;;16.72;76.51;99699.03;4881220;29;20226;-89
2021/08/21 04:56:33;;;;;;;9.27;7.90;;;;;;;16.87;75.88;99706.47;4881582;29;20253;-89
2021/08/21 04:59:26;;;;;;;10.57;6.90;;;;;;;17.00;75.35;99704.13;4865588;29;20247;-88
2021/08/21 05:01:59;;;;;;;7.53;6.80;;;;;;;17.21;74.67;99713.22;4882390;29;20239;-87
2021/08/21 05:04:26;;;;;;;6.80;6.10;;;;;;;17.25;74.29;99705.41;4881389;29;20251;-87
2021/08/21 05:06:53;;;;;;;6.50;5.93;;;;;;;17.48;73.59;99719.34;4881314;29;20238;-88
2021/08/21 05:09:21;;;;;;;7.63;6.00;;;;;;;17.56;73.41;99708.00;4881021;29;20651;-86
2021/08/21 05:11:52;;;;;;;7.10;6.37;;;;;;;17.73;72.40;99723.31;4866083;29;20228;-89
2021/08/21 05:14:20;;;;;;;7.27;6.37;;;;;;;17.85;72.35;99723.91;4896203;29;20232;-89
2021/08/21 05:16:47;;;;;;;6.37;5.77;;;;;;;17.92;71.92;99719.84;4866141;29;20246;-88
2021/08/21 05:19:37;;;;;;;6.83;6.23;;;;;;;18.07;71.20;99721.81;4881357;29;20238;-87
2021/08/21 05:22:39;;;;;;;7.23;6.03;;;;;;;18.25;70.51;99726.72;4865459;29;20318;-88
2021/08/21 05:25:06;;;;;;;7.00;6.27;;;;;;;18.42;69.73;99737.38;4865634;29;20268;-86
2021/08/21 05:27:33;;;;;;;6.07;5.53;;;;;;;18.53;69.46;99730.91;4865480;29;20276;-88
2021/08/21 05:30:01;;;;;;;6.40;5.73;;;;;;;18.64;68.86;99724.41;4865358;29;20712;-88
2021/08/21 05:32:27;;;;;;;6.77;6.10;;;;;;;18.76;68.29;99726.84;4880453;29;20274;-87
2021/08/21 05:34:54;;;;;;;6.33;5.73;;;;;;;18.95;67.56;99727.13;4865651;29;20303;-87
2021/08/21 05:37:21;;;;;;;6.43;5.83;;;;;;;19.06;67.29;99726.03;4865433;29;20235;-86
2021/08/21 05:39:48;;;;;;;6.37;5.77;;;;;;;19.18;66.78;99732.00;4880691;29;20247;-85
2021/08/21 05:42:14;;;;;;;5.77;5.20;;;;;;;19.33;66.23;99734.69;4864821;29;20644;-87
2021/08/21 05:44:41;;;;;;;6.40;5.70;;;;;;;19.35;65.42;99724.38;4881088;29;20640;-89
2021/08/21 05:47:08;;;;;;;5.90;5.30;;;;;;;19.48;65.74;99729.28;4865126;29;20322;-86
2021/08/21 05:49:35;;;;;;;6.20;5.60;;;;;;;19.66;65.08;99744.97;4880731;29;20291;-87
2021/08/21 05:52:02;;;;;;;5.70;5.13;;;;;;;19.82;65.07;99742.22;4880034;29;20227;-87
2021/08/21 05:54:29;;;;;;;5.80;5.30;;;;;;;19.89;64.63;99738.09;4880305;29;20235;-83
2021/08/21 05:57:02;;;;;;;5.70;5.20;;;;;;;20.05;64.24;99739.69;4865961;29;20238;-86
2021/08/21 05:59:31;;;;;;;5.90;5.40;;;;;;;20.21;63.34;99740.41;4881090;29;20296;-86
2021/08/21 06:01:59;;;;;;;7.00;5.17;;;;;;;20.38;63.81;99746.34;4880395;29;20720;-86
2021/08/21 06:04:26;;;;;;;6.00;5.50;;;;;;;20.44;63.61;99736.22;4864846;29;20238;-87
2021/08/21 06:06:53;;;;;;;7.07;5.00;;;;;;;20.50;63.42;99732.38;4864966;29;20242;-87
2021/08/21 06:09:23;;;;;;;5.43;4.80;;;;;;;20.71;63.11;99747.50;4880306;29;20832;-85
2021/08/21 06:11:50;;;;;;;5.90;5.30;;;;;;;20.82;62.88;99737.31;4880144;29;20305;-86
2021/08/21 06:14:17;;;;;;;5.47;4.90;;;;;;;20.90;62.40;99736.75;4879807;29;20581;-89
2021/08/21 06:16:45;;;;;;;5.47;4.93;;;;;;;21.00;62.16;99748.34;4880152;29;20236;-85
2021/08/21 06:19:11;;;;;;;5.53;5.03;;;;;;;21.09;61.16;99741.19;4848993;29;20256;-87
2021/08/21 06:21:38;;;;;;;5.60;5.00;;;;;;;21.31;60.56;99753.56;4879914;29;20253;-87
2021/08/21 06:24:05;;;;;;;5.53;4.97;;;;;;;21.42;59.73;99747.72;4865408;29;20234;-85
2021/08/21 06:26:32;;;;;;;5.13;4.67;;;;;;;21.55;59.19;99735.34;4883679;29;20290;-87
2021/08/21 06:28:59;;;;;;;5.67;4.67;;;;;;;21.75;58.67;99742.47;4883847;29;20246;-86
2021/08/21 06:31:26;;;;;;;5.30;4.80;;;;;;;21.84;57.43;99747.00;4883690;29;20585;-86
2021/08/21 06:33:53;;;;;;;5.03;4.50;;;;;;;21.92;57.84;99745.56;4868239;29;20234;-86
2021/08/21 06:36:20;;;;;;;5.20;4.70;;;;;;;21.99;57.64;99743.31;4883300;29;20304;-85
2021/08/21 06:38:46;;;;;;;5.17;4.67;;;;;;;22.16;57.38;99748.28;4883698;29;20260;-86
2021/08/21 06:41:13;;;;;;;5.27;4.80;;;;;;;22.23;56.40;99746.81;4883399;29;20260;-86
2021/08/21 06:43:40;;;;;;;5.37;4.87;;;;;;;22.09;57.42;99745.09;4868064;29;20309;-87
2021/08/21 06:46:12;;;;;;;5.20;4.70;;;;;;;22.03;56.90;99749.78;4884021;29;20255;-87
2021/08/21 06:48:39;;;;;;;7.03;4.80;;;;;;;21.87;56.75;99743.72;4883445;29;20678;-86
2021/08/21 06:51:06;;;;;;;5.03;4.33;;;;;;;22.06;55.96;99732.88;4867817;29;20243;-85
2021/08/21 06:53:33;;;;;;;5.70;4.70;;;;;;;22.28;55.59;99740.47;4883475;29;20258;-85
2021/08/21 06:56:01;;;;;;;5.50;5.00;;;;;;;22.42;55.85;99746.03;4867786;29;20234;-87
2021/08/21 06:58:29;;;;;;;5.17;4.70;;;;;;;22.50;55.22;99751.63;4867740;29;20286;-86
2021/08/21 07:00:56;;;;;;;5.13;4.73;;;;;;;22.55;55.69;99745.28;4868259;29;20576;-85
2021/08/21 07:03:23;;;;;;;5.00;4.60;;;;;;;22.71;55.72;99757.66;4882888;29;20238;-86
2021/08/21 07:05:50;;;;;;;4.90;4.40;;;;;;;22.53;56.11;99747.50;4882940;29;20241;-86
2021/08/21 07:08:18;;;;;;;6.03;4.67;;;;;;;22.74;57.02;99755.13;4851996;29;20267;-85
2021/08/21 07:10:45;;;;;;;4.90;4.50;;;;;;;22.87;56.54;99739.09;4883015;29;20648;-86
2021/08/21 07:13:11;;;;;;;8.03;4.73;;;;;;;22.80;55.66;99753.13;4882632;29;20227;-87
2021/08/21 07:15:38;;;;;;;5.43;4.70;;;;;;;22.98;56.18;99762.41;4883010;29;20330;-86
2021/08/21 07:18:05;;;;;;;5.23;4.73;;;;;;;23.19;56.21;99760.94;4867086;29;20263;-86
2021/08/21 07:20:32;;;;;;;5.60;5.10;;;;;;;23.28;56.27;99754.50;4882679;29;20311;-86
2021/08/21 07:22:59;;;;;;;5.77;4.60;;;;;;;23.43;55.71;99761.63;4882744;29;20233;-83
2021/08/21 07:25:25;;;;;;;5.10;4.70;;;;;;;23.54;54.27;99757.63;4882498;29;20315;-87
2021/08/21 07:27:52;;;;;;;5.60;5.13;;;;;;;23.56;54.66;99762.81;4867557;29;20227;-86
2021/08/21 07:30:19;;;;;;;5.47;4.97;;;;;;;23.54;55.81;99767.75;4882348;29;20242;-85
2021/08/21 07:32:46;;;;;;;5.40;4.90;;;;;;;23.56;55.06;99763.59;4867235;29;20242;-84
2021/08/21 07:35:13;;;;;;;5.50;5.03;;;;;;;23.38;54.57;99764.44;4866653;29;20293;-86
2021/08/21 07:37:40;;;;;;;5.03;4.53;;;;;;;23.64;54.87;99765.66;4850868;29;20242;-85
2021/08/21 07:40:08;;;;;;;6.13;4.70;;;;;;;23.68;55.52;99780.34;4883035;29;20240;-85
2021/08/21 07:42:35;;;;;;;5.07;4.57;;;;;;;23.82;54.11;99765.84;4866713;29;20307;-85
2021/08/21 07:45:04;;;;;;;4.97;4.47;;;;;;;23.66;52.64;99768.06;4882323;29;20239;-86
2021/08/21 07:47:30;;;;;;;4.67;4.27;;;;;;;23.54;53.55;99762.28;4866815;29;20253;-86
2021/08/21 07:49:57;;;;;;;5.33;4.80;;;;;;;23.62;53.33;99770.59;4882219;29;20288;-84
2021/08/21 07:52:25;;;;;;;5.03;4.53;;;;;;;23.82;52.91;99777.63;4880595;29;20274;-85
2021/08/21 07:54:53;;;;;;;4.40;4.07;;;;;;;23.73;51.91;99763.03;4880371;29;20291;-83
2021/08/21 07:57:20;;;;;;;4.43;4.07;;;;;;;23.98;51.18;99775.41;4866642;29;20231;-85
2021/08/21 07:59:47;;;;;;;4.38;3.97;;;;;;;24.11;51.48;99767.19;4863263;29;20244;-84
2021/08/21 08:02:14;;;;;;;5.47;4.28;;;;;;;24.21;51.80;99766.19;4862063;29;20628;-84
2021/08/21 08:04:41;;;;;;;4.72;4.32;;;;;;;24.05;51.67;99771.13;4870894;29;20654;-86
2021/08/21 08:07:08;;;;;;;5.65;4.65;;;;;;;24.22;52.27;99776.00;4883247;29;20231;-85
2021/08/21 08:09:35;;;;;;;5.30;3.97;;;;;;;24.40;52.16;99757.84;4861938;29;20248;-85
2021/08/21 08:12:02;;;;;;;4.33;4.00;;;;;;;24.68;52.25;99772.28;4880647;29;20231;-84
2021/08/21 08:14:28;;;;;;;4.65;4.20;;;;;;;24.70;52.74;99767.28;4872601;29;20281;-83
2021/08/21 08:16:55;;;;;;;5.03;4.63;;;;;;;24.64;51.98;99765.78;4866055;29;20236;-84
2021/08/21 08:19:22;;;;;;;4.53;4.13;;;;;;;24.71;50.40;99755.22;4861982;29;20261;-86
2021/08/21 08:21:49;;;;;;;4.15;3.85;;;;;;;24.75;51.53;99762.50;4861106;29;20247;-83
2021/08/21 08:24:19;;;;;;;4.70;3.78;;;;;;;24.83;50.85;99764.50;4867219;29;20287;-86
2021/08/21 08:26:46;;;;;;;4.53;4.20;;;;;;;24.76;51.95;99777.03;4872335;29;20319;-83
2021/08/21 08:29:13;;;;;;;4.30;3.88;;;;;;;24.55;50.38;99763.78;4861776;29;20240;-85
2021/08/21 08:31:40;;;;;;;4.68;4.10;;;;;;;24.86;50.73;99768.56;4870033;29;20224;-84
2021/08/21 08:34:06;;;;;;;4.53;3.88;;;;;;;24.98;51.60;99774.31;4869906;29;20224;-88
2021/08/21 08:36:33;;;;;;;5.00;4.13;;;;;;;25.32;51.01;99771.00;4873122;29;20303;-84
2021/08/21 08:39:00;;;;;;;4.70;4.30;;;;;;;25.10;49.49;99763.63;4872132;29;20230;-85
2021/08/21 08:41:27;;;;;;;4.50;4.20;;;;;;;25.28;50.72;99784.53;4858633;29;20217;-88
2021/08/21 08:43:54;;;;;;;6.03;4.65;;;;;;;25.36;50.35;99780.22;4872619;29;20315;-83
2021/08/21 08:46:21;;;;;;;5.40;4.90;;;;;;;25.25;49.88;99765.97;4866218;29;20242;-84
2021/08/21 08:48:48;;;;;;;4.80;4.40;;;;;;;25.36;49.97;99772.00;4854077;29;20236;-85
2021/08/21 08:51:16;;;;;;;4.90;4.50;;;;;;;25.40;50.93;99765.56;4862701;29;20288;-88
2021/08/21 08:53:43;;;;;;;4.78;4.38;;;;;;;25.58;49.62;99771.16;4867203;29;20229;-83
2021/08/21 08:56:09;;;;;;;5.13;4.65;;;;;;;25.65;49.35;99772.34;4860541;29;20297;-85
2021/08/21 08:58:36;;;;;;;5.13;4.72;;;;;;;25.83;47.88;99771.31;4869316;29;20323;-85
2021/08/21 09:01:03;;;;;;;4.70;4.30;;;;;;;25.89;48.95;99766.50;4885082;29;20237;-84
2021/08/21 09:03:32;;;;;;;4.72;4.28;;;;;;;26.02;48.76;99772.97;4866753;29;20529;-85
2021/08/21 09:05:59;;;;;;;4.93;4.43;;;;;;;25.99;48.95;99759.91;4831853;29;20265;-84
2021/08/21 09:08:29;;;;;;;5.68;4.78;;;;;;;25.89;48.70;99773.91;4864260;29;20230;-85
2021/08/21 09:10:58;;;;;;;5.03;4.50;;;;;;;25.77;49.12;99763.50;4876039;29;20608;-86
2021/08/21 09:13:25;;;;;;;5.03;4.43;;;;;;;25.73;49.21;99779.00;4862007;29;20230;-85
2021/08/21 09:15:58;;;;;;;4.65;4.22;;;;;;;26.13;48.35;99766.88;4871769;29;20285;-85
2021/08/21 09:18:29;;;;;;;4.40;4.10;;;;;;;26.31;48.64;99769.69;4866747;29;20290;-84
2021/08/21 09:21:10;;;;;;;6.65;4.53;;;;;;;25.86;49.39;99758.88;4871306;29;20328;-84
2021/08/21 09:23:43;;;;;;;4.78;4.30;;;;;;;26.14;49.31;99764.94;4861322;29;20538;-85
2021/08/21 09:26:19;;;;;;;4.30;4.00;;;;;;;26.15;47.89;99755.56;4851155;29;20232;-85
2021/08/21 09:28:51;;;;;;;4.45;4.05;;;;;;;26.24;48.52;99762.75;4861569;29;20287;-85
2021/08/21 09:31:22;;;;;;;4.20;3.90;;;;;;;26.37;47.67;99768.41;4862082;29;20240;-84
2021/08/21 09:33:54;;;;;;;4.75;3.95;;;;;;;26.45;47.46;99759.38;4869973;29;20238;-84
2021/08/21 09:36:27;;;;;;;4.53;4.10;;;;;;;26.23;45.92;99771.28;4864620;29;20259;-85
2021/08/21 09:38:54;;;;;;;4.47;4.07;;;;;;;26.26;46.58;99757.75;4860808;29;20293;-85
2021/08/21 09:41:21;;;;;;;4.03;3.72;;;;;;;26.16;45.64;99758.00;4867179;29;20712;-85
2021/08/21 09:43:47;;;;;;;4.85;4.38;;;;;;;26.23;45.47;99746.56;4860735;29;20231;-84
2021/08/21 09:46:19;;;;;;;4.05;3.75;;;;;;;26.60;45.48;99759.72;4852100;29;20232;-85
2021/08/21 09:48:58;;;;;;;4.13;3.80;;;;;;;26.86;45.96;99758.94;4874303;29;20262;-84
2021/08/21 09:51:49;;;;;;;5.03;4.55;;;;;;;26.24;48.38;99761.94;4864651;29;20302;-86
2021/08/21 09:54:18;;;;;;;4.43;3.92;;;;;;;25.99;47.43;99746.19;4869197;29;20722;-85
2021/08/21 09:56:53;;;;;;;4.25;3.85;;;;;;;26.33;46.09;99764.69;4855106;29;20307;-84
2021/08/21 09:59:36;;;;;;;4.00;3.70;;;;;;;26.73;45.65;99749.72;4877628;29;20568;-84
2021/08/21 10:02:10;;;;;;;5.00;4.60;;;;;;;26.61;45.25;99761.34;4883244;29;20240;-85
2021/08/21 10:04:39;;;;;;;4.53;4.13;;;;;;;26.84;45.84;99750.16;4868726;29;20292;-85
2021/08/21 10:07:09;;;;;;;4.68;3.60;;;;;;;27.04;44.90;99757.78;4853136;29;20651;-84
2021/08/21 10:09:38;;;;;;;4.85;3.60;;;;;;;26.56;45.09;99746.94;4856256;29;20291;-86
2021/08/21 10:12:07;;;;;;;4.75;3.60;;;;;;;26.82;43.28;99747.78;4864616;29;20245;-85
2021/08/21 10:14:34;;;;;;;4.47;3.30;;;;;;;27.00;43.77;99749.41;4882767;29;20242;-85
2021/08/21 10:17:01;;;;;;;4.38;3.00;;;;;;;27.40;42.72;99746.38;4868111;29;20242;-84
2021/08/21 10:19:28;;;;;;;3.53;3.17;;;;;;;27.66;42.55;99751.84;4868173;29;20235;-84
2021/08/21 10:21:57;;;;;;;3.47;3.17;;;;;;;27.76;41.64;99746.81;4883479;29;20245;-84
2021/08/21 10:24:30;;;;;;;3.95;3.30;;;;;;;27.02;42.27;99735.31;4882881;29;20236;-87
2021/08/21 10:27:27;;;;;;;3.58;3.28;;;;;;;26.80;42.12;99740.97;4864744;29;20555;-86
2021/08/21 10:30:07;;;;;;;3.88;3.30;;;;;;;27.34;41.87;99732.00;4880761;29;20291;-85
2021/08/21 10:32:36;;;;;;;4.07;3.75;;;;;;;27.56;42.37;99733.75;4883215;29;20298;-85
2021/08/21 10:35:04;;;;;;;6.40;3.63;;;;;;;27.55;41.04;99741.19;4867868;29;20297;-85
2021/08/21 10:37:46;;;;;;;4.60;3.67;;;;;;;27.66;41.26;99730.66;4854897;29;20324;-85
2021/08/21 10:40:28;;;;;;;3.47;3.17;;;;;;;27.69;39.49;99734.66;4847570;29;20259;-86
2021/08/21 10:42:57;;;;;;;3.75;2.78;;;;;;;27.89;39.14;99720.97;4861886;29;20659;-83
2021/08/21 10:45:39;;;;;;;3.50;3.20;;;;;;;28.01;40.21;99729.31;4843734;29;20330;-86
2021/08/21 10:48:07;;;;;;;3.45;3.17;;;;;;;27.63;42.83;99734.03;4861047;29;20243;-85
2021/08/21 10:50:35;;;;;;;3.80;3.50;;;;;;;27.16;42.58;99725.75;4845428;29;20316;-84
2021/08/21 10:53:07;;;;;;;3.30;3.10;;;;;;;27.56;41.45;99733.75;4847327;29;20310;-85
2021/08/21 10:55:41;;;;;;;5.68;3.20;;;;;;;27.78;41.58;99739.00;4846821;29;20267;-86
2021/08/21 10:58:18;;;;;;;5.57;3.35;;;;;;;27.95;40.10;99738.91;4846633;29;20248;-85
2021/08/21 11:00:55;;;;;;;3.22;2.92;;;;;;;27.89;39.10;99731.19;4848289;29;20294;-85
2021/08/21 11:03:22;;;;;;;4.10;3.13;;;;;;;27.87;38.57;99738.97;4848417;29;20681;-85
2021/08/21 11:06:07;;;;;;;3.20;3.00;;;;;;;28.25;38.51;99727.91;4863334;29;20236;-85
2021/08/21 11:08:40;;;;;;;3.55;3.25;;;;;;;28.51;39.29;99736.78;4848498;29;20228;-86
2021/08/21 11:13:47;;;;;;;3.60;3.30;;;;;;;28.04;39.86;99738.88;4863294;29;20236;-85
2021/08/21 11:16:15;;;;;;;3.47;3.17;;;;;;;28.13;40.49;99728.66;4863140;29;20270;-85
2021/08/21 11:18:47;;;;;;;3.33;3.03;;;;;;;28.48;40.49;99737.47;4863524;29;20270;-85
2021/08/21 11:21:33;;;;;;;3.40;2.92;;;;;;;28.80;37.41;99728.47;4863436;29;20288;-84
2021/08/21 11:24:00;;;;;;;3.38;2.85;;;;;;;29.14;37.95;99723.78;4863239;29;20240;-86
2021/08/21 11:26:27;;;;;;;3.72;2.90;;;;;;;29.21;38.13;99727.59;4847931;29;20643;-84
2021/08/21 11:29:14;;;;;;;4.43;3.08;;;;;;;29.19;38.40;99710.59;4873254;29;20326;-85
2021/08/21 11:31:56;;;;;;;3.42;3.13;;;;;;;29.50;37.79;99723.09;4881872;29;20300;-86
2021/08/21 11:34:23;;;;;;;2.95;2.72;;;;;;;29.25;38.67;99719.47;4866007;29;20246;-86
2021/08/21 11:36:50;;;;;;;3.90;3.30;;;;;;;28.50;40.58;99726.13;4881978;29;20700;-85
2021/08/21 11:39:17;;;;;;;3.30;3.00;;;;;;;28.20;39.79;99719.84;4866969;29;20284;-85
2021/08/21 11:41:54;;;;;;;3.50;3.20;;;;;;;28.22;40.52;99721.16;4882013;29;20236;-86
2021/08/21 11:44:28;;;;;;;3.30;3.10;;;;;;;28.42;39.09;99714.81;4881742;29;20631;-86
2021/08/21 11:47:09;;;;;;;4.72;3.33;;;;;;;28.97;38.63;99713.75;4897505;29;20245;-86
2021/08/21 11:49:36;;;;;;;3.60;3.30;;;;;;;29.37;38.21;99714.00;4866670;29;20235;-85